sensor_id;sensor_type;location;lat;lon;timestamp;P1;durP1;ratioP1;P2;durP2;ratioP2
58081;SDS011;43876;55.576;38.242;2022-08-01T00:00:13;11.63;;;5.32;;
58081;SDS011;43876;55.576;38.242;2022-08-01T00:02:40;7.47;;;5.18;;
58081;SDS011;43876;55.576;38.242;2022-08-01T00:05:08;7.85;;;4.88;;
58081;SDS011;43876;55.576;38.242;2022-08-01T00:07:35;7.40;;;5.00;;
58081;SDS011;43876;55.576;38.242;2022-08-01T00:10:03;6.32;;;4.80;;
58081;SDS011;43876;55.576;38.242;2022-08-01T00:12:31;8.07;;;5.10;;
58081;SDS011;43876;55.576;38.242;2022-08-01T00:14:58;9.75;;;5.28;;
58081;SDS011;43876;55.576;38.242;2022-08-01T00:17:25;9.80;;;5.00;;
58081;SDS011;43876;55.576;38.242;2022-08-01T00:19:52;8.27;;;4.93;;
58081;SDS011;43876;55.576;38.242;2022-08-01T00:22:19;10.93;;;5.18;;
58081;SDS011;43876;55.576;38.242;2022-08-01T00:24:45;7.93;;;4.85;;
58081;SDS011;43876;55.576;38.242;2022-08-01T00:27:12;7.05;;;4.90;;
58081;SDS011;43876;55.576;38.242;2022-08-01T00:29:39;8.05;;;5.43;;
58081;SDS011;43876;55.576;38.242;2022-08-01T00:32:29;8.30;;;5.40;;
58081;SDS011;43876;55.576;38.242;2022-08-01T00:34:57;10.65;;;5.78;;
58081;SDS011;43876;55.576;38.242;2022-08-01T00:37:24;10.70;;;5.90;;
58081;SDS011;43876;55.576;38.242;2022-08-01T00:39:51;10.35;;;5.57;;
58081;SDS011;43876;55.576;38.242;2022-08-01T00:42:18;9.82;;;5.60;;
58081;SDS011;43876;55.576;38.242;2022-08-01T00:44:45;10.15;;;5.65;;
58081;SDS011;43876;55.576;38.242;2022-08-01T00:47:12;7.15;;;5.25;;
58081;SDS011;43876;55.576;38.242;2022-08-01T00:49:39;7.88;;;5.82;;
58081;SDS011;43876;55.576;38.242;2022-08-01T00:52:06;10.45;;;5.90;;
58081;SDS011;43876;55.576;38.242;2022-08-01T00:54:35;8.98;;;5.35;;
58081;SDS011;43876;55.576;38.242;2022-08-01T00:57:03;9.63;;;5.97;;
58081;SDS011;43876;55.576;38.242;2022-08-01T00:59:35;11.65;;;6.63;;
58081;SDS011;43876;55.576;38.242;2022-08-01T01:02:06;8.63;;;5.95;;
58081;SDS011;43876;55.576;38.242;2022-08-01T01:04:41;9.63;;;5.97;;
58081;SDS011;43876;55.576;38.242;2022-08-01T01:07:12;7.97;;;5.47;;
58081;SDS011;43876;55.576;38.242;2022-08-01T01:09:52;8.80;;;6.25;;
58081;SDS011;43876;55.576;38.242;2022-08-01T01:12:33;7.05;;;5.13;;
58081;SDS011;43876;55.576;38.242;2022-08-01T01:15:08;9.63;;;5.65;;
58081;SDS011;43876;55.576;38.242;2022-08-01T01:17:45;8.73;;;5.57;;
58081;SDS011;43876;55.576;38.242;2022-08-01T01:20:17;9.50;;;5.80;;
58081;SDS011;43876;55.576;38.242;2022-08-01T01:22:50;8.82;;;5.20;;
58081;SDS011;43876;55.576;38.242;2022-08-01T01:25:48;11.15;;;5.75;;
58081;SDS011;43876;55.576;38.242;2022-08-01T01:31:46;9.52;;;5.22;;
58081;SDS011;43876;55.576;38.242;2022-08-01T01:34:24;9.77;;;5.72;;
58081;SDS011;43876;55.576;38.242;2022-08-01T01:36:54;10.00;;;6.45;;
58081;SDS011;43876;55.576;38.242;2022-08-01T01:39:25;8.70;;;6.03;;
58081;SDS011;43876;55.576;38.242;2022-08-01T01:41:56;8.63;;;5.50;;
58081;SDS011;43876;55.576;38.242;2022-08-01T01:44:25;14.50;;;6.60;;
58081;SDS011;43876;55.576;38.242;2022-08-01T01:46:54;11.37;;;6.27;;
58081;SDS011;43876;55.576;38.242;2022-08-01T01:49:27;8.77;;;6.65;;
58081;SDS011;43876;55.576;38.242;2022-08-01T01:51:56;8.77;;;6.10;;
58081;SDS011;43876;55.576;38.242;2022-08-01T01:54:30;8.13;;;5.07;;
58081;SDS011;43876;55.576;38.242;2022-08-01T01:57:00;10.18;;;5.38;;
58081;SDS011;43876;55.576;38.242;2022-08-01T01:59:31;9.23;;;6.35;;
58081;SDS011;43876;55.576;38.242;2022-08-01T02:02:01;8.95;;;5.70;;
58081;SDS011;43876;55.576;38.242;2022-08-01T02:04:32;6.78;;;4.35;;
58081;SDS011;43876;55.576;38.242;2022-08-01T02:07:02;5.60;;;3.92;;
58081;SDS011;43876;55.576;38.242;2022-08-01T02:09:30;8.73;;;4.50;;
58081;SDS011;43876;55.576;38.242;2022-08-01T02:11:58;7.72;;;4.10;;
58081;SDS011;43876;55.576;38.242;2022-08-01T02:14:54;7.25;;;4.10;;
58081;SDS011;43876;55.576;38.242;2022-08-01T02:17:23;6.18;;;4.32;;
58081;SDS011;43876;55.576;38.242;2022-08-01T02:19:52;7.65;;;3.75;;
58081;SDS011;43876;55.576;38.242;2022-08-01T02:22:30;5.05;;;3.85;;
58081;SDS011;43876;55.576;38.242;2022-08-01T02:25:02;6.90;;;3.75;;
58081;SDS011;43876;55.576;38.242;2022-08-01T02:27:37;5.10;;;3.55;;
58081;SDS011;43876;55.576;38.242;2022-08-01T02:30:25;5.82;;;4.00;;
58081;SDS011;43876;55.576;38.242;2022-08-01T02:32:59;5.85;;;3.63;;
58081;SDS011;43876;55.576;38.242;2022-08-01T02:35:35;5.50;;;3.60;;
58081;SDS011;43876;55.576;38.242;2022-08-01T02:38:25;6.40;;;3.90;;
58081;SDS011;43876;55.576;38.242;2022-08-01T02:40:56;4.25;;;3.35;;
58081;SDS011;43876;55.576;38.242;2022-08-01T02:43:27;6.00;;;3.92;;
58081;SDS011;43876;55.576;38.242;2022-08-01T02:45:59;12.07;;;4.68;;
58081;SDS011;43876;55.576;38.242;2022-08-01T02:48:29;9.57;;;6.05;;
58081;SDS011;43876;55.576;38.242;2022-08-01T02:51:00;5.65;;;4.10;;
58081;SDS011;43876;55.576;38.242;2022-08-01T02:53:31;5.78;;;4.53;;
58081;SDS011;43876;55.576;38.242;2022-08-01T02:58:37;8.98;;;4.47;;
58081;SDS011;43876;55.576;38.242;2022-08-01T03:01:07;8.80;;;4.45;;
58081;SDS011;43876;55.576;38.242;2022-08-01T03:03:36;7.82;;;5.00;;
58081;SDS011;43876;55.576;38.242;2022-08-01T03:06:04;7.80;;;5.35;;
58081;SDS011;43876;55.576;38.242;2022-08-01T03:08:32;5.55;;;4.90;;
58081;SDS011;43876;55.576;38.242;2022-08-01T03:11:01;9.45;;;5.88;;
58081;SDS011;43876;55.576;38.242;2022-08-01T03:13:29;8.13;;;4.57;;
58081;SDS011;43876;55.576;38.242;2022-08-01T03:15:59;11.60;;;5.47;;
58081;SDS011;43876;55.576;38.242;2022-08-01T03:18:26;4.97;;;4.47;;
58081;SDS011;43876;55.576;38.242;2022-08-01T03:20:56;8.68;;;5.25;;
58081;SDS011;43876;55.576;38.242;2022-08-01T03:23:28;5.75;;;4.53;;
58081;SDS011;43876;55.576;38.242;2022-08-01T03:26:03;5.75;;;4.22;;
58081;SDS011;43876;55.576;38.242;2022-08-01T03:28:32;8.30;;;5.03;;
58081;SDS011;43876;55.576;38.242;2022-08-01T03:30:59;8.65;;;5.25;;
58081;SDS011;43876;55.576;38.242;2022-08-01T03:35:55;9.57;;;5.22;;
58081;SDS011;43876;55.576;38.242;2022-08-01T03:38:25;8.73;;;4.80;;
58081;SDS011;43876;55.576;38.242;2022-08-01T03:41:07;4.70;;;4.20;;
58081;SDS011;43876;55.576;38.242;2022-08-01T03:43:39;5.90;;;3.88;;
58081;SDS011;43876;55.576;38.242;2022-08-01T03:46:29;6.40;;;3.78;;
58081;SDS011;43876;55.576;38.242;2022-08-01T03:49:03;6.05;;;4.13;;
58081;SDS011;43876;55.576;38.242;2022-08-01T03:51:34;7.20;;;4.20;;
58081;SDS011;43876;55.576;38.242;2022-08-01T03:54:03;6.80;;;4.10;;
58081;SDS011;43876;55.576;38.242;2022-08-01T03:56:31;4.50;;;4.10;;
58081;SDS011;43876;55.576;38.242;2022-08-01T03:59:00;5.95;;;4.15;;
58081;SDS011;43876;55.576;38.242;2022-08-01T04:01:31;7.05;;;4.50;;
58081;SDS011;43876;55.576;38.242;2022-08-01T04:03:59;7.00;;;4.40;;
58081;SDS011;43876;55.576;38.242;2022-08-01T04:06:28;6.03;;;3.35;;
58081;SDS011;43876;55.576;38.242;2022-08-01T04:08:56;7.28;;;4.20;;
58081;SDS011;43876;55.576;38.242;2022-08-01T04:11:24;7.15;;;4.03;;
58081;SDS011;43876;55.576;38.242;2022-08-01T04:13:52;5.95;;;4.28;;
58081;SDS011;43876;55.576;38.242;2022-08-01T04:16:21;4.70;;;4.10;;
58081;SDS011;43876;55.576;38.242;2022-08-01T04:18:49;10.20;;;4.03;;
58081;SDS011;43876;55.576;38.242;2022-08-01T04:21:17;4.72;;;3.97;;
58081;SDS011;43876;55.576;38.242;2022-08-01T04:23:47;6.20;;;3.50;;
58081;SDS011;43876;55.576;38.242;2022-08-01T04:26:19;9.80;;;4.25;;
58081;SDS011;43876;55.576;38.242;2022-08-01T04:28:47;7.30;;;3.58;;
58081;SDS011;43876;55.576;38.242;2022-08-01T04:31:17;4.13;;;3.40;;
58081;SDS011;43876;55.576;38.242;2022-08-01T04:33:46;7.85;;;3.50;;
58081;SDS011;43876;55.576;38.242;2022-08-01T04:36:16;4.20;;;3.53;;
58081;SDS011;43876;55.576;38.242;2022-08-01T04:38:48;7.47;;;3.70;;
58081;SDS011;43876;55.576;38.242;2022-08-01T04:41:18;6.30;;;3.42;;
58081;SDS011;43876;55.576;38.242;2022-08-01T04:43:47;5.20;;;3.80;;
58081;SDS011;43876;55.576;38.242;2022-08-01T04:46:14;6.00;;;3.45;;
58081;SDS011;43876;55.576;38.242;2022-08-01T04:48:44;6.85;;;4.20;;
58081;SDS011;43876;55.576;38.242;2022-08-01T04:51:12;6.55;;;4.00;;
58081;SDS011;43876;55.576;38.242;2022-08-01T04:53:42;8.60;;;4.40;;
58081;SDS011;43876;55.576;38.242;2022-08-01T04:56:12;6.03;;;3.88;;
58081;SDS011;43876;55.576;38.242;2022-08-01T04:58:43;3.78;;;3.22;;
58081;SDS011;43876;55.576;38.242;2022-08-01T05:01:10;5.95;;;3.55;;
58081;SDS011;43876;55.576;38.242;2022-08-01T05:03:38;6.15;;;3.30;;
58081;SDS011;43876;55.576;38.242;2022-08-01T05:06:05;3.35;;;2.92;;
58081;SDS011;43876;55.576;38.242;2022-08-01T05:08:32;5.20;;;2.83;;
58081;SDS011;43876;55.576;38.242;2022-08-01T05:10:59;6.15;;;2.78;;
58081;SDS011;43876;55.576;38.242;2022-08-01T05:13:27;3.95;;;2.90;;
58081;SDS011;43876;55.576;38.242;2022-08-01T05:15:55;4.28;;;3.10;;
58081;SDS011;43876;55.576;38.242;2022-08-01T05:18:22;3.92;;;2.80;;
58081;SDS011;43876;55.576;38.242;2022-08-01T05:20:54;4.45;;;3.15;;
58081;SDS011;43876;55.576;38.242;2022-08-01T05:23:21;5.00;;;3.28;;
58081;SDS011;43876;55.576;38.242;2022-08-01T05:26:09;6.30;;;3.20;;
58081;SDS011;43876;55.576;38.242;2022-08-01T05:28:41;7.22;;;2.80;;
58081;SDS011;43876;55.576;38.242;2022-08-01T05:31:08;4.97;;;2.95;;
58081;SDS011;43876;55.576;38.242;2022-08-01T05:33:35;4.47;;;2.75;;
58081;SDS011;43876;55.576;38.242;2022-08-01T05:36:02;3.83;;;2.58;;
58081;SDS011;43876;55.576;38.242;2022-08-01T05:38:30;4.25;;;2.65;;
58081;SDS011;43876;55.576;38.242;2022-08-01T05:40:56;5.25;;;3.00;;
58081;SDS011;43876;55.576;38.242;2022-08-01T05:43:23;4.20;;;2.58;;
58081;SDS011;43876;55.576;38.242;2022-08-01T05:45:54;7.20;;;2.90;;
58081;SDS011;43876;55.576;38.242;2022-08-01T05:48:21;3.97;;;2.60;;
58081;SDS011;43876;55.576;38.242;2022-08-01T05:50:48;6.40;;;2.47;;
58081;SDS011;43876;55.576;38.242;2022-08-01T05:53:20;5.35;;;2.70;;
58081;SDS011;43876;55.576;38.242;2022-08-01T05:55:47;4.20;;;2.50;;
58081;SDS011;43876;55.576;38.242;2022-08-01T05:58:14;4.95;;;2.88;;
58081;SDS011;43876;55.576;38.242;2022-08-01T06:00:41;4.57;;;2.60;;
58081;SDS011;43876;55.576;38.242;2022-08-01T06:03:09;4.05;;;2.40;;
58081;SDS011;43876;55.576;38.242;2022-08-01T06:05:37;7.03;;;2.70;;
58081;SDS011;43876;55.576;38.242;2022-08-01T06:08:04;5.03;;;2.92;;
58081;SDS011;43876;55.576;38.242;2022-08-01T06:10:31;6.25;;;2.70;;
58081;SDS011;43876;55.576;38.242;2022-08-01T06:12:58;7.25;;;3.10;;
58081;SDS011;43876;55.576;38.242;2022-08-01T06:15:30;5.57;;;2.88;;
58081;SDS011;43876;55.576;38.242;2022-08-01T06:17:58;4.97;;;3.08;;
58081;SDS011;43876;55.576;38.242;2022-08-01T06:20:25;5.00;;;3.45;;
58081;SDS011;43876;55.576;38.242;2022-08-01T06:22:52;4.85;;;2.80;;
58081;SDS011;43876;55.576;38.242;2022-08-01T06:25:20;4.03;;;2.60;;
58081;SDS011;43876;55.576;38.242;2022-08-01T06:27:47;2.80;;;2.30;;
58081;SDS011;43876;55.576;38.242;2022-08-01T06:30:14;3.35;;;2.30;;
58081;SDS011;43876;55.576;38.242;2022-08-01T06:32:42;6.97;;;2.60;;
58081;SDS011;43876;55.576;38.242;2022-08-01T06:35:09;2.95;;;2.15;;
58081;SDS011;43876;55.576;38.242;2022-08-01T06:37:36;4.72;;;2.40;;
58081;SDS011;43876;55.576;38.242;2022-08-01T06:40:04;2.45;;;1.60;;
58081;SDS011;43876;55.576;38.242;2022-08-01T06:42:32;2.13;;;1.92;;
58081;SDS011;43876;55.576;38.242;2022-08-01T06:47:30;2.92;;;2.38;;
58081;SDS011;43876;55.576;38.242;2022-08-01T06:49:57;4.93;;;2.45;;
58081;SDS011;43876;55.576;38.242;2022-08-01T06:52:24;3.97;;;2.05;;
58081;SDS011;43876;55.576;38.242;2022-08-01T06:54:52;2.28;;;1.95;;
58081;SDS011;43876;55.576;38.242;2022-08-01T06:57:19;1.90;;;1.80;;
58081;SDS011;43876;55.576;38.242;2022-08-01T06:59:46;3.50;;;1.88;;
58081;SDS011;43876;55.576;38.242;2022-08-01T07:02:20;3.35;;;1.90;;
58081;SDS011;43876;55.576;38.242;2022-08-01T07:04:47;6.28;;;1.90;;
58081;SDS011;43876;55.576;38.242;2022-08-01T07:07:14;2.15;;;1.95;;
58081;SDS011;43876;55.576;38.242;2022-08-01T07:09:41;4.00;;;1.80;;
58081;SDS011;43876;55.576;38.242;2022-08-01T07:12:09;2.85;;;2.00;;
58081;SDS011;43876;55.576;38.242;2022-08-01T07:14:36;4.25;;;2.20;;
58081;SDS011;43876;55.576;38.242;2022-08-01T07:17:03;5.35;;;2.38;;
58081;SDS011;43876;55.576;38.242;2022-08-01T07:19:30;5.15;;;2.00;;
58081;SDS011;43876;55.576;38.242;2022-08-01T07:21:57;5.28;;;2.00;;
58081;SDS011;43876;55.576;38.242;2022-08-01T07:24:24;2.97;;;2.22;;
58081;SDS011;43876;55.576;38.242;2022-08-01T07:26:54;4.20;;;1.90;;
58081;SDS011;43876;55.576;38.242;2022-08-01T07:29:24;4.45;;;1.98;;
58081;SDS011;43876;55.576;38.242;2022-08-01T07:31:52;2.63;;;2.10;;
58081;SDS011;43876;55.576;38.242;2022-08-01T07:34:20;4.80;;;2.35;;
58081;SDS011;43876;55.576;38.242;2022-08-01T07:36:48;2.97;;;1.55;;
58081;SDS011;43876;55.576;38.242;2022-08-01T07:39:16;1.50;;;1.40;;
58081;SDS011;43876;55.576;38.242;2022-08-01T07:41:43;3.22;;;1.70;;
58081;SDS011;43876;55.576;38.242;2022-08-01T07:44:30;2.60;;;1.83;;
58081;SDS011;43876;55.576;38.242;2022-08-01T07:46:57;5.75;;;1.98;;
58081;SDS011;43876;55.576;38.242;2022-08-01T07:49:24;3.33;;;1.80;;
58081;SDS011;43876;55.576;38.242;2022-08-01T07:51:51;7.28;;;2.47;;
58081;SDS011;43876;55.576;38.242;2022-08-01T07:54:32;3.97;;;1.90;;
58081;SDS011;43876;55.576;38.242;2022-08-01T07:57:01;2.88;;;2.00;;
58081;SDS011;43876;55.576;38.242;2022-08-01T07:59:29;3.28;;;2.10;;
58081;SDS011;43876;55.576;38.242;2022-08-01T08:01:56;3.17;;;2.20;;
58081;SDS011;43876;55.576;38.242;2022-08-01T08:04:23;2.20;;;2.00;;
58081;SDS011;43876;55.576;38.242;2022-08-01T08:06:51;1.98;;;1.88;;
58081;SDS011;43876;55.576;38.242;2022-08-01T08:09:20;3.58;;;1.92;;
58081;SDS011;43876;55.576;38.242;2022-08-01T08:11:47;3.03;;;2.20;;
58081;SDS011;43876;55.576;38.242;2022-08-01T08:14:17;3.58;;;2.42;;
58081;SDS011;43876;55.576;38.242;2022-08-01T08:16:45;3.22;;;1.95;;
58081;SDS011;43876;55.576;38.242;2022-08-01T08:19:12;6.20;;;2.10;;
58081;SDS011;43876;55.576;38.242;2022-08-01T08:21:39;4.25;;;1.92;;
58081;SDS011;43876;55.576;38.242;2022-08-01T08:24:07;3.53;;;2.20;;
58081;SDS011;43876;55.576;38.242;2022-08-01T08:26:59;3.33;;;2.05;;
58081;SDS011;43876;55.576;38.242;2022-08-01T08:29:27;4.18;;;2.05;;
58081;SDS011;43876;55.576;38.242;2022-08-01T08:31:56;2.15;;;1.60;;
58081;SDS011;43876;55.576;38.242;2022-08-01T08:34:25;2.70;;;2.05;;
58081;SDS011;43876;55.576;38.242;2022-08-01T08:36:53;4.13;;;1.98;;
58081;SDS011;43876;55.576;38.242;2022-08-01T08:39:22;7.68;;;2.33;;
58081;SDS011;43876;55.576;38.242;2022-08-01T08:41:49;1.90;;;1.80;;
58081;SDS011;43876;55.576;38.242;2022-08-01T08:44:16;1.80;;;1.65;;
58081;SDS011;43876;55.576;38.242;2022-08-01T08:46:44;2.15;;;1.70;;
58081;SDS011;43876;55.576;38.242;2022-08-01T08:51:52;17.30;;;3.30;;
58081;SDS011;43876;55.576;38.242;2022-08-01T08:54:21;12.13;;;3.15;;
58081;SDS011;43876;55.576;38.242;2022-08-01T08:56:57;3.45;;;2.08;;
58081;SDS011;43876;55.576;38.242;2022-08-01T08:59:25;12.33;;;2.90;;
58081;SDS011;43876;55.576;38.242;2022-08-01T09:01:53;11.68;;;3.13;;
58081;SDS011;43876;55.576;38.242;2022-08-01T09:04:21;26.48;;;3.85;;
58081;SDS011;43876;55.576;38.242;2022-08-01T09:06:52;3.92;;;2.00;;
58081;SDS011;43876;55.576;38.242;2022-08-01T09:09:19;2.17;;;1.63;;
58081;SDS011;43876;55.576;38.242;2022-08-01T09:11:46;4.82;;;1.92;;
58081;SDS011;43876;55.576;38.242;2022-08-01T09:14:23;4.88;;;2.17;;
58081;SDS011;43876;55.576;38.242;2022-08-01T09:17:03;5.93;;;2.47;;
58081;SDS011;43876;55.576;38.242;2022-08-01T09:19:38;3.33;;;2.17;;
58081;SDS011;43876;55.576;38.242;2022-08-01T09:22:11;4.05;;;1.95;;
58081;SDS011;43876;55.576;38.242;2022-08-01T09:24:40;5.03;;;2.20;;
58081;SDS011;43876;55.576;38.242;2022-08-01T09:27:18;5.70;;;2.22;;
58081;SDS011;43876;55.576;38.242;2022-08-01T09:29:48;2.83;;;1.83;;
58081;SDS011;43876;55.576;38.242;2022-08-01T09:32:29;6.68;;;2.42;;
58081;SDS011;43876;55.576;38.242;2022-08-01T09:40:56;2.40;;;2.00;;
58081;SDS011;43876;55.576;38.242;2022-08-01T09:43:28;4.95;;;2.60;;
58081;SDS011;43876;55.576;38.242;2022-08-01T09:45:58;3.58;;;2.00;;
58081;SDS011;43876;55.576;38.242;2022-08-01T09:48:26;8.17;;;2.70;;
58081;SDS011;43876;55.576;38.242;2022-08-01T09:50:56;6.22;;;2.60;;
58081;SDS011;43876;55.576;38.242;2022-08-01T09:53:45;2.75;;;2.30;;
58081;SDS011;43876;55.576;38.242;2022-08-01T09:56:18;2.22;;;2.00;;
58081;SDS011;43876;55.576;38.242;2022-08-01T10:01:24;3.58;;;2.35;;
58081;SDS011;43876;55.576;38.242;2022-08-01T10:06:38;1.77;;;1.67;;
58081;SDS011;43876;55.576;38.242;2022-08-01T10:09:07;3.00;;;2.20;;
58081;SDS011;43876;55.576;38.242;2022-08-01T10:11:34;3.95;;;2.30;;
58081;SDS011;43876;55.576;38.242;2022-08-01T10:14:06;3.92;;;2.45;;
58081;SDS011;43876;55.576;38.242;2022-08-01T10:16:34;2.25;;;2.05;;
58081;SDS011;43876;55.576;38.242;2022-08-01T10:19:05;3.55;;;2.40;;
58081;SDS011;43876;55.576;38.242;2022-08-01T10:21:40;3.90;;;2.22;;
58081;SDS011;43876;55.576;38.242;2022-08-01T10:24:24;4.88;;;1.92;;
58081;SDS011;43876;55.576;38.242;2022-08-01T10:26:58;3.33;;;2.15;;
58081;SDS011;43876;55.576;38.242;2022-08-01T10:32:34;3.42;;;2.50;;
58081;SDS011;43876;55.576;38.242;2022-08-01T10:35:05;2.47;;;2.05;;
58081;SDS011;43876;55.576;38.242;2022-08-01T10:37:41;3.92;;;2.17;;
58081;SDS011;43876;55.576;38.242;2022-08-01T10:40:18;2.97;;;2.40;;
58081;SDS011;43876;55.576;38.242;2022-08-01T10:42:57;3.00;;;2.22;;
58081;SDS011;43876;55.576;38.242;2022-08-01T10:45:24;2.97;;;2.30;;
58081;SDS011;43876;55.576;38.242;2022-08-01T10:48:03;4.55;;;2.20;;
58081;SDS011;43876;55.576;38.242;2022-08-01T10:53:29;2.50;;;2.30;;
58081;SDS011;43876;55.576;38.242;2022-08-01T10:56:08;4.20;;;2.30;;
58081;SDS011;43876;55.576;38.242;2022-08-01T10:58:41;6.38;;;2.40;;
58081;SDS011;43876;55.576;38.242;2022-08-01T11:01:16;4.65;;;2.50;;
58081;SDS011;43876;55.576;38.242;2022-08-01T11:09:04;3.60;;;2.20;;
58081;SDS011;43876;55.576;38.242;2022-08-01T11:12:15;4.35;;;2.60;;
58081;SDS011;43876;55.576;38.242;2022-08-01T11:17:32;3.67;;;2.60;;
58081;SDS011;43876;55.576;38.242;2022-08-01T11:25:24;4.80;;;2.67;;
58081;SDS011;43876;55.576;38.242;2022-08-01T11:28:24;2.85;;;2.30;;
58081;SDS011;43876;55.576;38.242;2022-08-01T11:41:10;2.53;;;2.30;;
58081;SDS011;43876;55.576;38.242;2022-08-01T11:44:21;2.72;;;2.50;;
58081;SDS011;43876;55.576;38.242;2022-08-01T11:55:04;2.85;;;1.88;;
58081;SDS011;43876;55.576;38.242;2022-08-01T11:57:36;3.95;;;2.45;;
58081;SDS011;43876;55.576;38.242;2022-08-01T12:00:09;2.20;;;2.10;;
58081;SDS011;43876;55.576;38.242;2022-08-01T12:02:42;2.50;;;2.30;;
58081;SDS011;43876;55.576;38.242;2022-08-01T12:05:12;4.47;;;2.20;;
58081;SDS011;43876;55.576;38.242;2022-08-01T12:07:41;3.40;;;2.30;;
58081;SDS011;43876;55.576;38.242;2022-08-01T12:10:13;5.47;;;2.22;;
58081;SDS011;43876;55.576;38.242;2022-08-01T12:12:43;3.63;;;2.10;;
58081;SDS011;43876;55.576;38.242;2022-08-01T12:15:12;4.20;;;2.30;;
58081;SDS011;43876;55.576;38.242;2022-08-01T12:17:40;4.13;;;2.38;;
58081;SDS011;43876;55.576;38.242;2022-08-01T12:20:24;4.28;;;1.90;;
58081;SDS011;43876;55.576;38.242;2022-08-01T12:22:57;3.00;;;2.22;;
58081;SDS011;43876;55.576;38.242;2022-08-01T12:25:26;3.05;;;2.30;;
58081;SDS011;43876;55.576;38.242;2022-08-01T12:27:54;3.15;;;2.17;;
58081;SDS011;43876;55.576;38.242;2022-08-01T12:30:23;4.22;;;2.03;;
58081;SDS011;43876;55.576;38.242;2022-08-01T12:32:52;6.07;;;2.15;;
58081;SDS011;43876;55.576;38.242;2022-08-01T12:35:21;12.63;;;3.05;;
58081;SDS011;43876;55.576;38.242;2022-08-01T12:37:54;9.73;;;3.55;;
58081;SDS011;43876;55.576;38.242;2022-08-01T12:40:22;98.07;;;10.70;;
58081;SDS011;43876;55.576;38.242;2022-08-01T12:42:52;23.38;;;4.07;;
58081;SDS011;43876;55.576;38.242;2022-08-01T12:47:50;16.83;;;3.65;;
58081;SDS011;43876;55.576;38.242;2022-08-01T12:50:22;4.07;;;2.88;;
58081;SDS011;43876;55.576;38.242;2022-08-01T12:52:51;2.72;;;2.33;;
58081;SDS011;43876;55.576;38.242;2022-08-01T12:55:19;4.45;;;2.45;;
58081;SDS011;43876;55.576;38.242;2022-08-01T12:57:48;3.97;;;2.63;;
58081;SDS011;43876;55.576;38.242;2022-08-01T13:02:46;17.23;;;3.43;;
58081;SDS011;43876;55.576;38.242;2022-08-01T13:05:14;14.18;;;3.30;;
58081;SDS011;43876;55.576;38.242;2022-08-01T13:10:12;4.75;;;2.30;;
58081;SDS011;43876;55.576;38.242;2022-08-01T13:12:40;4.90;;;2.53;;
58081;SDS011;43876;55.576;38.242;2022-08-01T13:15:18;11.43;;;3.83;;
58081;SDS011;43876;55.576;38.242;2022-08-01T13:17:52;12.98;;;3.00;;
58081;SDS011;43876;55.576;38.242;2022-08-01T13:20:27;3.07;;;2.47;;
58081;SDS011;43876;55.576;38.242;2022-08-01T13:23:12;4.85;;;1.98;;
58081;SDS011;43876;55.576;38.242;2022-08-01T13:26:01;4.32;;;2.30;;
58081;SDS011;43876;55.576;38.242;2022-08-01T13:28:29;2.60;;;2.10;;
58081;SDS011;43876;55.576;38.242;2022-08-01T13:31:01;3.88;;;2.42;;
58081;SDS011;43876;55.576;38.242;2022-08-01T13:33:45;2.55;;;2.00;;
58081;SDS011;43876;55.576;38.242;2022-08-01T13:36:19;4.80;;;2.35;;
58081;SDS011;43876;55.576;38.242;2022-08-01T13:38:54;3.47;;;2.13;;
58081;SDS011;43876;55.576;38.242;2022-08-01T13:41:40;4.25;;;2.00;;
58081;SDS011;43876;55.576;38.242;2022-08-01T13:44:07;2.47;;;2.15;;
58081;SDS011;43876;55.576;38.242;2022-08-01T13:46:35;2.25;;;2.05;;
58081;SDS011;43876;55.576;38.242;2022-08-01T13:49:13;2.42;;;2.22;;
58081;SDS011;43876;55.576;38.242;2022-08-01T13:51:42;2.67;;;2.20;;
58081;SDS011;43876;55.576;38.242;2022-08-01T13:54:09;3.17;;;2.20;;
58081;SDS011;43876;55.576;38.242;2022-08-01T13:56:36;5.90;;;2.33;;
58081;SDS011;43876;55.576;38.242;2022-08-01T13:59:03;2.95;;;2.20;;
58081;SDS011;43876;55.576;38.242;2022-08-01T14:01:30;3.38;;;3.00;;
58081;SDS011;43876;55.576;38.242;2022-08-01T14:04:00;3.17;;;2.13;;
58081;SDS011;43876;55.576;38.242;2022-08-01T14:06:27;2.22;;;2.05;;
58081;SDS011;43876;55.576;38.242;2022-08-01T14:08:54;4.10;;;2.17;;
58081;SDS011;43876;55.576;38.242;2022-08-01T14:11:22;4.15;;;2.10;;
58081;SDS011;43876;55.576;38.242;2022-08-01T14:13:50;5.45;;;2.10;;
58081;SDS011;43876;55.576;38.242;2022-08-01T14:16:17;2.45;;;2.20;;
58081;SDS011;43876;55.576;38.242;2022-08-01T14:18:45;3.38;;;2.42;;
58081;SDS011;43876;55.576;38.242;2022-08-01T14:21:12;2.72;;;2.40;;
58081;SDS011;43876;55.576;38.242;2022-08-01T14:23:39;3.70;;;2.53;;
58081;SDS011;43876;55.576;38.242;2022-08-01T14:26:06;2.65;;;2.45;;
58081;SDS011;43876;55.576;38.242;2022-08-01T14:28:38;5.55;;;2.40;;
58081;SDS011;43876;55.576;38.242;2022-08-01T14:31:05;4.68;;;2.38;;
58081;SDS011;43876;55.576;38.242;2022-08-01T14:33:34;2.50;;;2.10;;
58081;SDS011;43876;55.576;38.242;2022-08-01T14:36:02;2.40;;;2.20;;
58081;SDS011;43876;55.576;38.242;2022-08-01T14:38:49;4.05;;;2.47;;
58081;SDS011;43876;55.576;38.242;2022-08-01T14:41:16;2.25;;;2.05;;
58081;SDS011;43876;55.576;38.242;2022-08-01T14:43:43;4.03;;;2.28;;
58081;SDS011;43876;55.576;38.242;2022-08-01T14:46:11;2.40;;;2.20;;
58081;SDS011;43876;55.576;38.242;2022-08-01T14:48:39;2.47;;;2.25;;
58081;SDS011;43876;55.576;38.242;2022-08-01T14:51:06;2.60;;;2.40;;
58081;SDS011;43876;55.576;38.242;2022-08-01T14:53:34;3.83;;;2.50;;
58081;SDS011;43876;55.576;38.242;2022-08-01T14:56:04;4.50;;;2.60;;
58081;SDS011;43876;55.576;38.242;2022-08-01T14:58:33;4.63;;;2.83;;
58081;SDS011;43876;55.576;38.242;2022-08-01T15:01:03;3.10;;;2.17;;
58081;SDS011;43876;55.576;38.242;2022-08-01T15:03:32;3.75;;;2.40;;
58081;SDS011;43876;55.576;38.242;2022-08-01T15:05:59;2.78;;;2.42;;
58081;SDS011;43876;55.576;38.242;2022-08-01T15:08:26;2.90;;;2.60;;
58081;SDS011;43876;55.576;38.242;2022-08-01T15:10:54;4.90;;;2.78;;
58081;SDS011;43876;55.576;38.242;2022-08-01T15:13:21;4.40;;;2.78;;
58081;SDS011;43876;55.576;38.242;2022-08-01T15:15:48;6.13;;;3.20;;
58081;SDS011;43876;55.576;38.242;2022-08-01T15:18:15;5.28;;;3.83;;
58081;SDS011;43876;55.576;38.242;2022-08-01T15:20:42;6.53;;;3.83;;
58081;SDS011;43876;55.576;38.242;2022-08-01T15:23:09;5.47;;;2.70;;
58081;SDS011;43876;55.576;38.242;2022-08-01T15:25:36;2.60;;;2.40;;
58081;SDS011;43876;55.576;38.242;2022-08-01T15:28:10;3.78;;;2.45;;
58081;SDS011;43876;55.576;38.242;2022-08-01T15:30:38;2.90;;;2.55;;
58081;SDS011;43876;55.576;38.242;2022-08-01T15:33:05;2.92;;;2.40;;
58081;SDS011;43876;55.576;38.242;2022-08-01T15:35:33;6.38;;;2.22;;
58081;SDS011;43876;55.576;38.242;2022-08-01T15:38:00;5.18;;;2.40;;
58081;SDS011;43876;55.576;38.242;2022-08-01T15:40:28;2.03;;;1.92;;
58081;SDS011;43876;55.576;38.242;2022-08-01T15:42:55;2.47;;;2.20;;
58081;SDS011;43876;55.576;38.242;2022-08-01T15:45:22;3.28;;;2.20;;
58081;SDS011;43876;55.576;38.242;2022-08-01T15:48:09;3.35;;;2.25;;
58081;SDS011;43876;55.576;38.242;2022-08-01T15:50:36;6.32;;;2.58;;
58081;SDS011;43876;55.576;38.242;2022-08-01T15:53:05;5.57;;;2.60;;
58081;SDS011;43876;55.576;38.242;2022-08-01T15:55:35;3.75;;;2.50;;
58081;SDS011;43876;55.576;38.242;2022-08-01T15:58:04;6.32;;;2.65;;
58081;SDS011;43876;55.576;38.242;2022-08-01T16:00:31;5.30;;;3.00;;
58081;SDS011;43876;55.576;38.242;2022-08-01T16:03:08;4.50;;;2.20;;